createdAt,value
2019-04-14T00:01:34.785Z,6.29
2019-04-14T00:04:11.520Z,6.33
2019-04-14T00:06:41.865Z,6.33
2019-04-14T00:09:14.021Z,6.30
2019-04-14T00:11:41.566Z,6.30
2019-04-14T00:14:10.211Z,6.28
2019-04-14T00:16:40.182Z,6.27
2019-04-14T00:19:08.750Z,6.29
2019-04-14T00:21:38.928Z,6.27
2019-04-14T00:24:07.381Z,6.24
2019-04-14T00:26:35.649Z,6.30
2019-04-14T00:29:04.737Z,6.33
2019-04-14T00:31:32.934Z,6.30
2019-04-14T00:34:09.233Z,6.23
2019-04-14T00:36:55.068Z,6.18
2019-04-14T00:39:27.308Z,6.21
2019-04-14T00:42:03.345Z,6.16
2019-04-14T00:44:49.745Z,6.22
2019-04-14T00:47:31.050Z,6.19
2019-04-14T00:49:59.458Z,6.17
2019-04-14T00:52:27.717Z,6.15
2019-04-14T00:54:57.194Z,6.12
2019-04-14T00:57:25.169Z,6.15
2019-04-14T00:59:53.347Z,6.19
2019-04-14T01:02:21.574Z,6.18
2019-04-14T01:04:49.700Z,6.18
2019-04-14T01:07:19.513Z,6.14
2019-04-14T01:09:48.778Z,6.11
2019-04-14T01:12:17.133Z,6.04
2019-04-14T01:14:45.326Z,5.97
2019-04-14T01:17:13.461Z,5.86
2019-04-14T01:19:41.763Z,5.84
2019-04-14T01:22:09.780Z,5.75
2019-04-14T01:24:38.192Z,5.75
2019-04-14T01:27:06.132Z,5.75
2019-04-14T01:29:34.279Z,5.70
2019-04-14T01:32:02.370Z,5.70
2019-04-14T01:34:30.529Z,5.69
2019-04-14T01:36:58.584Z,5.73
2019-04-14T01:39:26.672Z,5.72
2019-04-14T01:41:54.764Z,5.71
2019-04-14T01:44:24.133Z,5.68
2019-04-14T01:46:52.338Z,5.65
2019-04-14T01:49:20.424Z,5.67
2019-04-14T01:52:03.815Z,5.72
2019-04-14T01:54:53.975Z,5.70
2019-04-14T01:57:35.066Z,5.70
2019-04-14T02:00:36.196Z,5.76
2019-04-14T02:03:04.663Z,5.73
2019-04-14T02:05:32.690Z,5.78
2019-04-14T02:08:00.805Z,5.79
2019-04-14T02:10:28.896Z,5.70
2019-04-14T02:12:56.871Z,5.70
2019-04-14T02:15:24.982Z,5.67
2019-04-14T02:17:54.504Z,5.61
2019-04-14T02:20:22.928Z,5.58
2019-04-14T02:22:50.688Z,5.59
2019-04-14T02:25:18.890Z,5.56
2019-04-14T02:27:47.226Z,5.52
2019-04-14T02:30:22.296Z,5.49
2019-04-14T02:33:15.371Z,5.50
2019-04-14T02:35:47.190Z,5.43
2019-04-14T02:38:23.255Z,5.51
2019-04-14T02:40:43.795Z,5.48
2019-04-14T02:43:19.754Z,5.45
2019-04-14T02:45:50.564Z,5.49
2019-04-14T02:48:25.840Z,5.56
2019-04-14T02:50:40.621Z,5.62
2019-04-14T02:53:19.091Z,5.56
2019-04-14T02:55:42.503Z,5.60
2019-04-14T03:03:16.619Z,5.58
2019-04-14T03:05:47.795Z,5.54
2019-04-14T03:08:17.530Z,5.35
2019-04-14T03:13:28.919Z,5.47
2019-04-14T03:15:48.129Z,5.49
2019-04-14T03:21:13.438Z,5.49
2019-04-14T03:24:06.996Z,5.50
2019-04-14T03:26:41.996Z,5.51
2019-04-14T03:29:19.604Z,5.55
2019-04-14T03:32:00.186Z,5.58
2019-04-14T03:39:15.561Z,5.57
2019-04-14T03:41:45.189Z,5.54
2019-04-14T03:44:18.629Z,5.48
2019-04-14T03:49:17.806Z,5.43
2019-04-14T03:51:57.832Z,5.45
2019-04-14T03:54:11.024Z,5.48
2019-04-14T03:56:48.927Z,5.55
2019-04-14T03:59:17.613Z,5.58
2019-04-14T04:01:45.808Z,5.57
2019-04-14T04:04:14.103Z,5.47
2019-04-14T04:06:44.173Z,5.56
2019-04-14T04:09:12.578Z,5.51
2019-04-14T04:11:41.216Z,5.52
2019-04-14T04:14:09.652Z,5.52
2019-04-14T04:17:03.711Z,5.57
2019-04-14T04:19:55.506Z,5.59
2019-04-14T04:22:56.470Z,5.62
2019-04-14T04:25:59.457Z,5.60
2019-04-14T04:28:34.915Z,5.59
2019-04-14T04:31:16.151Z,5.58
2019-04-14T04:34:06.149Z,5.56
2019-04-14T04:36:38.114Z,5.57
2019-04-14T04:39:11.014Z,5.52
2019-04-14T04:41:38.707Z,5.50
2019-04-14T04:44:07.201Z,5.51
2019-04-14T04:46:35.142Z,5.56
2019-04-14T04:49:10.843Z,5.63
2019-04-14T04:51:33.218Z,5.66
2019-04-14T04:54:01.699Z,5.65
2019-04-14T04:56:29.773Z,5.64
2019-04-14T04:58:57.520Z,5.64
2019-04-14T05:01:25.297Z,5.59
2019-04-14T05:03:53.594Z,5.63
2019-04-14T05:07:07.630Z,5.64
2019-04-14T05:10:08.876Z,5.67
2019-04-14T05:13:00.785Z,5.68
2019-04-14T05:15:38.402Z,5.75
2019-04-14T05:18:07.104Z,5.78
2019-04-14T05:20:35.572Z,5.83
2019-04-14T05:23:03.834Z,5.84
2019-04-14T05:25:31.858Z,5.85
2019-04-14T05:28:00.486Z,5.85
2019-04-14T05:30:28.646Z,5.79
2019-04-14T05:32:56.722Z,5.78
2019-04-14T05:35:24.946Z,5.84
2019-04-14T05:37:53.010Z,5.86
2019-04-14T05:40:21.142Z,5.89
2019-04-14T05:42:49.443Z,5.92
2019-04-14T05:45:17.716Z,5.94
2019-04-14T05:47:45.804Z,5.96
2019-04-14T05:50:13.802Z,6.00
2019-04-14T05:52:42.589Z,6.01
2019-04-14T05:55:11.268Z,6.03
2019-04-14T05:57:39.534Z,6.05
2019-04-14T06:00:08.809Z,6.12
2019-04-14T06:02:37.730Z,6.10
2019-04-14T06:05:06.567Z,6.06
2019-04-14T06:07:35.165Z,6.07
2019-04-14T06:10:03.917Z,6.07
2019-04-14T06:12:31.954Z,6.06
2019-04-14T06:14:59.829Z,6.11
2019-04-14T06:17:27.866Z,6.13
2019-04-14T06:19:56.100Z,6.18
2019-04-14T06:22:24.159Z,6.22
2019-04-14T06:24:52.422Z,6.19
2019-04-14T06:27:20.367Z,6.22
2019-04-14T06:29:50.386Z,6.23
2019-04-14T06:32:39.888Z,6.24
2019-04-14T06:35:30.418Z,6.34
2019-04-14T06:38:12.156Z,6.33
2019-04-14T06:40:53.653Z,6.41
2019-04-14T06:43:21.258Z,6.41
2019-04-14T06:45:48.962Z,6.42
2019-04-14T06:48:17.074Z,6.50
2019-04-14T06:50:46.448Z,6.53
2019-04-14T06:53:14.637Z,6.60
2019-04-14T06:55:42.322Z,6.60
2019-04-14T06:58:10.439Z,6.66
2019-04-14T07:00:38.463Z,6.66
2019-04-14T07:03:06.050Z,6.71
2019-04-14T07:05:33.630Z,6.82
2019-04-14T07:08:01.181Z,6.97
2019-04-14T07:10:28.913Z,7.04
2019-04-14T07:12:56.636Z,7.01
2019-04-14T07:15:24.415Z,7.05
2019-04-14T07:17:52.083Z,7.09
2019-04-14T07:20:19.764Z,7.07
2019-04-14T07:22:47.605Z,6.97
2019-04-14T07:25:15.288Z,6.95
2019-04-14T07:27:43.020Z,7.01
2019-04-14T07:30:32.924Z,7.06
2019-04-14T07:33:13.693Z,7.11
2019-04-14T07:36:08.150Z,7.08
2019-04-14T07:38:43.505Z,7.14
2019-04-14T07:41:21.834Z,7.16
2019-04-14T07:44:24.346Z,7.17
2019-04-14T07:46:58.319Z,7.23
2019-04-14T07:49:51.666Z,7.23
2019-04-14T07:52:44.857Z,7.18
2019-04-14T07:55:28.778Z,7.27
2019-04-14T07:58:03.010Z,7.43
2019-04-14T08:00:50.219Z,7.58
2019-04-14T08:03:45.930Z,7.62
2019-04-14T08:06:13.550Z,7.86
2019-04-14T08:08:41.085Z,7.86
2019-04-14T08:11:08.673Z,7.79
2019-04-14T08:13:37.357Z,7.85
2019-04-14T08:16:04.987Z,7.82
2019-04-14T08:18:32.577Z,7.75
2019-04-14T08:21:00.203Z,7.79
2019-04-14T08:23:27.749Z,7.78
2019-04-14T08:25:55.339Z,7.59
2019-04-14T08:28:23.049Z,7.62
2019-04-14T08:30:50.655Z,7.80
2019-04-14T08:33:18.263Z,7.78
2019-04-14T08:35:45.972Z,7.88
2019-04-14T08:38:13.552Z,7.98
2019-04-14T08:40:41.165Z,8.04
2019-04-14T08:43:28.678Z,8.11
2019-04-14T08:46:18.593Z,8.30
2019-04-14T08:48:48.909Z,8.40
2019-04-14T08:51:26.852Z,8.54
2019-04-14T08:54:06.191Z,8.51
2019-04-14T08:57:09.430Z,8.59
2019-04-14T08:59:59.538Z,8.84
2019-04-14T09:02:46.706Z,9.11
2019-04-14T09:05:34.138Z,9.29
2019-04-14T09:08:08.592Z,9.30
2019-04-14T09:10:38.619Z,9.31
2019-04-14T09:13:06.224Z,9.28
2019-04-14T09:15:33.888Z,9.16
2019-04-14T09:18:01.573Z,9.20
2019-04-14T09:20:29.303Z,9.36
2019-04-14T09:22:57.003Z,9.20
2019-04-14T09:25:24.642Z,9.09
2019-04-14T09:27:52.389Z,9.14
2019-04-14T09:30:20.060Z,9.08
2019-04-14T09:32:47.820Z,9.01
2019-04-14T09:35:15.453Z,8.79
2019-04-14T09:37:43.206Z,8.92
2019-04-14T09:40:11.055Z,9.06
2019-04-14T09:42:38.661Z,8.84
2019-04-14T09:45:06.387Z,8.99
2019-04-14T09:47:35.578Z,9.08
2019-04-14T09:50:03.454Z,9.32
2019-04-14T09:52:31.120Z,9.37
2019-04-14T09:54:58.643Z,9.30
2019-04-14T09:57:26.301Z,9.36
2019-04-14T09:59:53.865Z,8.76
2019-04-14T10:02:29.246Z,8.95
2019-04-14T10:04:56.662Z,8.99
2019-04-14T10:07:24.292Z,9.18
2019-04-14T10:09:51.996Z,9.29
2019-04-14T10:12:20.645Z,9.43
2019-04-14T10:14:48.323Z,9.43
2019-04-14T10:17:15.966Z,9.66
2019-04-14T10:19:44.470Z,9.49
2019-04-14T10:22:12.129Z,9.54
2019-04-14T10:24:39.695Z,9.53
2019-04-14T10:27:08.365Z,9.51
2019-04-14T10:29:35.893Z,9.66
2019-04-14T10:32:03.824Z,9.67
2019-04-14T10:34:31.347Z,9.59
2019-04-14T10:36:59.015Z,9.70
2019-04-14T10:39:26.634Z,9.69
2019-04-14T10:41:54.280Z,9.71
2019-04-14T10:44:21.858Z,9.63
2019-04-14T10:46:49.542Z,9.49
2019-04-14T10:49:17.115Z,9.54
2019-04-14T10:51:44.777Z,9.55
2019-04-14T10:54:12.333Z,9.50
2019-04-14T10:56:39.967Z,9.53
2019-04-14T10:59:07.694Z,9.38
2019-04-14T11:01:37.008Z,9.46
2019-04-14T11:04:04.724Z,9.19
2019-04-14T11:06:35.681Z,9.34
2019-04-14T11:09:07.197Z,9.19
2019-04-14T11:11:40.704Z,9.27
2019-04-14T11:14:08.413Z,9.36
2019-04-14T11:16:36.219Z,9.56
2019-04-14T11:19:04.070Z,9.62
2019-04-14T11:21:41.917Z,9.71
2019-04-14T11:24:01.295Z,9.70
2019-04-14T11:26:28.953Z,9.71
2019-04-14T11:28:56.747Z,9.61
2019-04-14T11:31:42.876Z,9.59
2019-04-14T11:34:11.159Z,9.79
2019-04-14T11:36:54.700Z,9.71
2019-04-14T11:39:22.701Z,9.80
2019-04-14T11:41:50.333Z,9.71
2019-04-14T11:44:18.004Z,9.55
2019-04-14T11:46:46.679Z,9.53
2019-04-14T11:49:14.378Z,9.67
2019-04-14T11:51:54.423Z,9.62
2019-04-14T11:54:11.739Z,9.71
2019-04-14T11:56:39.375Z,9.66
2019-04-14T11:59:06.999Z,9.61
2019-04-14T12:01:59.754Z,9.55
2019-04-14T12:04:39.784Z,9.45
2019-04-14T12:07:26.952Z,9.20
2019-04-14T12:09:57.336Z,9.24
2019-04-14T12:12:24.999Z,9.46
2019-04-14T12:14:52.608Z,9.32
2019-04-14T12:17:20.176Z,9.44
2019-04-14T12:19:47.754Z,9.45
2019-04-14T12:22:15.405Z,9.33
2019-04-14T12:24:42.945Z,9.19
2019-04-14T12:27:10.536Z,9.46
2019-04-14T12:29:43.318Z,9.40
2019-04-14T12:32:15.080Z,9.33
2019-04-14T12:34:43.464Z,9.42
2019-04-14T12:37:11.307Z,9.48
2019-04-14T12:39:39.093Z,9.49
2019-04-14T12:42:32.891Z,9.54
2019-04-14T12:45:19.052Z,9.52
2019-04-14T12:48:06.475Z,9.53
2019-04-14T12:50:41.726Z,9.51
2019-04-14T12:53:09.561Z,9.68
2019-04-14T12:55:37.284Z,9.66
2019-04-14T12:58:05.643Z,9.72
2019-04-14T13:00:55.791Z,9.72
2019-04-14T13:03:24.503Z,9.60
2019-04-14T13:05:52.222Z,9.59
2019-04-14T13:08:19.972Z,9.50
2019-04-14T13:10:47.611Z,9.38
2019-04-14T13:13:15.365Z,9.25
2019-04-14T13:15:43.094Z,9.35
2019-04-14T13:18:10.859Z,9.23
2019-04-14T13:20:39.033Z,9.27
2019-04-14T13:23:06.824Z,9.30
2019-04-14T13:25:34.651Z,9.22
2019-04-14T13:28:02.847Z,9.35
2019-04-14T13:30:33.729Z,9.37
2019-04-14T13:33:01.911Z,9.13
2019-04-14T13:35:29.664Z,9.13
2019-04-14T13:37:57.306Z,9.21
2019-04-14T13:40:24.915Z,9.05
2019-04-14T13:42:52.593Z,9.02
2019-04-14T13:45:20.279Z,8.95
2019-04-14T13:47:48.045Z,9.03
2019-04-14T13:50:15.627Z,9.12
2019-04-14T13:52:47.127Z,9.05
2019-04-14T13:55:13.204Z,8.99
2019-04-14T13:57:41.065Z,8.93
2019-04-14T14:00:11.270Z,8.94
2019-04-14T14:02:39.068Z,8.91
2019-04-14T14:05:06.779Z,8.79
2019-04-14T14:07:34.449Z,8.85
2019-04-14T14:10:02.436Z,8.57
2019-04-14T14:12:35.091Z,8.64
2019-04-14T14:15:23.028Z,8.64
2019-04-14T14:18:21.536Z,8.63
2019-04-14T14:21:17.696Z,8.53
2019-04-14T14:24:07.734Z,8.50
2019-04-14T14:26:36.878Z,8.53
2019-04-14T14:29:04.475Z,8.50
2019-04-14T14:31:32.173Z,8.38
2019-04-14T14:33:59.749Z,8.41
2019-04-14T14:36:28.514Z,8.46
2019-04-14T14:38:57.377Z,8.49
2019-04-14T14:41:25.124Z,8.48
2019-04-14T14:43:53.068Z,8.51
2019-04-14T14:46:46.876Z,8.55
2019-04-14T14:49:20.049Z,8.60
2019-04-14T14:51:53.970Z,8.56
2019-04-14T14:54:21.723Z,8.78
2019-04-14T14:56:49.481Z,8.89
2019-04-14T14:59:17.210Z,8.78
2019-04-14T15:01:44.982Z,8.81
2019-04-14T15:04:12.672Z,8.71
2019-04-14T15:06:40.355Z,8.68
2019-04-14T15:09:08.130Z,8.60
2019-04-14T15:11:35.839Z,8.59
2019-04-14T15:14:05.040Z,8.49
2019-04-14T15:16:32.695Z,8.41
2019-04-14T15:19:02.293Z,8.42
2019-04-14T15:21:29.991Z,8.57
2019-04-14T15:23:57.692Z,8.65
2019-04-14T15:26:25.868Z,8.74
2019-04-14T15:28:53.623Z,8.88
2019-04-14T15:31:21.308Z,8.85
2019-04-14T15:33:48.965Z,8.80
2019-04-14T15:36:16.747Z,8.78
2019-04-14T15:38:44.339Z,9.03
2019-04-14T15:41:12.989Z,9.03
2019-04-14T15:43:40.679Z,8.99
2019-04-14T15:46:08.352Z,9.06
2019-04-14T15:48:36.171Z,9.06
2019-04-14T15:51:03.972Z,8.94
2019-04-14T15:53:37.703Z,8.88
2019-04-14T15:56:01.490Z,8.65
2019-04-14T15:58:49.089Z,8.68
2019-04-14T16:01:26.680Z,8.67
2019-04-14T16:04:13.133Z,8.61
2019-04-14T16:06:50.426Z,8.67
2019-04-14T16:09:22.924Z,8.69
2019-04-14T16:11:58.802Z,8.78
2019-04-14T16:15:00.956Z,8.76
2019-04-14T16:17:40.883Z,8.78
2019-04-14T16:20:15.185Z,9.07
2019-04-14T16:22:42.922Z,9.03
2019-04-14T16:25:10.670Z,9.06
2019-04-14T16:28:05.332Z,9.08
2019-04-14T16:30:55.292Z,9.23
2019-04-14T16:33:48.749Z,9.41
2019-04-14T16:36:16.383Z,9.14
2019-04-14T16:38:45.207Z,9.07
2019-04-14T16:41:13.063Z,8.99
2019-04-14T16:43:40.927Z,8.93
2019-04-14T16:46:08.811Z,8.81
2019-04-14T16:48:36.507Z,8.68
2019-04-14T16:51:05.705Z,8.68
2019-04-14T16:53:35.561Z,8.48
2019-04-14T16:56:22.699Z,8.38
2019-04-14T16:58:53.332Z,8.40
2019-04-14T17:01:28.130Z,8.35
2019-04-14T17:03:55.909Z,8.25
2019-04-14T17:06:23.522Z,8.18
2019-04-14T17:08:51.383Z,8.17
2019-04-14T17:11:19.039Z,8.19
2019-04-14T17:13:55.570Z,8.13
2019-04-14T17:17:01.217Z,8.14
2019-04-14T17:19:44.853Z,8.11
2019-04-14T17:22:17.637Z,8.06
2019-04-14T17:25:05.004Z,7.88
2019-04-14T17:27:49.905Z,8.07
2019-04-14T17:30:25.222Z,7.97
2019-04-14T17:33:10.979Z,8.05
2019-04-14T17:35:45.146Z,8.09
2019-04-14T17:38:26.386Z,8.03
2019-04-14T17:41:18.472Z,8.02
2019-04-14T17:43:53.564Z,7.97
2019-04-14T17:46:46.392Z,7.97
2019-04-14T17:49:47.153Z,7.98
2019-04-14T17:52:39.404Z,7.95
2019-04-14T17:55:14.193Z,7.95
2019-04-14T17:58:00.139Z,7.92
2019-04-14T18:00:43.143Z,7.95
2019-04-14T18:03:29.369Z,7.96
2019-04-14T18:06:02.243Z,7.97
2019-04-14T18:08:55.279Z,7.78
2019-04-14T18:11:51.510Z,7.88
2019-04-14T18:14:51.464Z,7.91
2019-04-14T18:17:35.000Z,7.96
2019-04-14T18:20:08.304Z,8.01
2019-04-14T18:22:35.956Z,7.93
2019-04-14T18:25:04.698Z,7.89
2019-04-14T18:27:41.142Z,7.84
2019-04-14T18:30:28.392Z,7.87
2019-04-14T18:33:18.106Z,7.85
2019-04-14T18:35:55.568Z,7.85
2019-04-14T18:38:42.693Z,7.86
2019-04-14T18:41:20.071Z,7.78
2019-04-14T18:43:59.286Z,7.78
2019-04-14T18:46:51.522Z,7.80
2019-04-14T18:49:44.788Z,7.78
2019-04-14T18:52:39.201Z,7.81
2019-04-14T18:55:24.986Z,7.81
2019-04-14T18:58:18.297Z,7.77
2019-04-14T19:00:50.721Z,7.74
2019-04-14T19:03:18.393Z,7.73
2019-04-14T19:05:46.142Z,7.73
2019-04-14T19:08:14.498Z,7.68
2019-04-14T19:10:45.368Z,7.67
2019-04-14T19:13:29.480Z,7.73
2019-04-14T19:16:18.598Z,7.74
2019-04-14T19:18:48.881Z,7.60
2019-04-14T19:21:20.245Z,7.73
2019-04-14T19:23:48.024Z,7.76
2019-04-14T19:26:16.066Z,7.83
2019-04-14T19:28:43.966Z,7.66
2019-04-14T19:31:11.759Z,7.77
2019-04-14T19:33:39.414Z,7.81
2019-04-14T19:36:07.032Z,7.84
2019-04-14T19:38:34.831Z,7.78
2019-04-14T19:41:02.529Z,7.72
2019-04-14T19:43:30.246Z,7.70
2019-04-14T19:45:57.945Z,7.81
2019-04-14T19:48:25.661Z,7.77
2019-04-14T19:50:53.679Z,7.72
2019-04-14T19:53:21.544Z,7.71
2019-04-14T19:55:49.383Z,7.71
2019-04-14T19:58:17.085Z,7.72
2019-04-14T20:00:44.932Z,7.71
2019-04-14T20:03:12.775Z,7.68
2019-04-14T20:05:40.466Z,7.69
2019-04-14T20:08:08.226Z,7.69
2019-04-14T20:10:36.287Z,7.66
2019-04-14T20:13:04.064Z,7.66
2019-04-14T20:15:36.810Z,7.66
2019-04-14T20:18:22.818Z,7.66
2019-04-14T20:21:09.713Z,7.58
2019-04-14T20:23:41.793Z,7.54
2019-04-14T20:26:31.955Z,7.60
2019-04-14T20:29:07.248Z,7.64
2019-04-14T20:31:40.495Z,7.50
2019-04-14T20:34:08.389Z,7.46
2019-04-14T20:36:36.145Z,7.51
2019-04-14T20:39:06.948Z,7.47
2019-04-14T20:41:36.679Z,7.53
2019-04-14T20:44:04.617Z,7.64
2019-04-14T20:46:32.331Z,7.53
2019-04-14T20:49:01.630Z,7.51
2019-04-14T20:51:29.335Z,7.47
2019-04-14T20:53:57.190Z,7.49
2019-04-14T20:56:24.893Z,7.52
2019-04-14T20:58:52.771Z,7.43
2019-04-14T21:01:21.395Z,7.55
2019-04-14T21:04:11.434Z,7.56
2019-04-14T21:06:57.246Z,7.54
2019-04-14T21:09:38.171Z,7.57
2019-04-14T21:12:19.313Z,7.57
2019-04-14T21:15:19.907Z,7.64
2019-04-14T21:18:09.827Z,7.71
2019-04-14T21:20:51.696Z,7.72
2019-04-14T21:23:37.657Z,7.58
2019-04-14T21:26:36.758Z,7.55
2019-04-14T21:29:11.327Z,7.44
2019-04-14T21:31:43.965Z,7.50
2019-04-14T21:34:20.924Z,7.55
2019-04-14T21:36:56.532Z,7.55
2019-04-14T21:39:43.850Z,7.49
2019-04-14T21:42:12.108Z,7.51
2019-04-14T21:44:39.787Z,7.46
2019-04-14T21:47:07.497Z,7.33
2019-04-14T21:49:35.135Z,7.36
2019-04-14T21:52:20.894Z,7.36
2019-04-14T21:54:48.572Z,7.24
2019-04-14T21:57:34.098Z,7.12
2019-04-14T22:00:20.144Z,7.13
2019-04-14T22:03:09.142Z,7.13
2019-04-14T22:05:56.314Z,7.06
2019-04-14T22:08:27.593Z,7.09
2019-04-14T22:10:58.143Z,6.99
2019-04-14T22:13:25.927Z,6.91
2019-04-14T22:15:53.558Z,7.01
2019-04-14T22:18:21.205Z,6.99
2019-04-14T22:20:48.810Z,6.88
2019-04-14T22:23:16.483Z,6.94
2019-04-14T22:25:44.050Z,6.90
2019-04-14T22:28:11.723Z,6.89
2019-04-14T22:30:41.475Z,6.93
2019-04-14T22:33:09.057Z,6.97
2019-04-14T22:35:36.703Z,6.96
2019-04-14T22:38:04.644Z,6.91
2019-04-14T22:40:32.304Z,6.85
2019-04-14T22:42:59.887Z,6.92
2019-04-14T22:45:27.607Z,6.88
2019-04-14T22:47:55.202Z,7.02
2019-04-14T22:50:22.799Z,7.03
2019-04-14T22:52:50.476Z,7.02
2019-04-14T22:55:18.024Z,7.10
2019-04-14T22:57:45.603Z,7.10
2019-04-14T23:00:18.569Z,7.13
2019-04-14T23:03:11.271Z,7.18
2019-04-14T23:06:00.988Z,7.11
2019-04-14T23:08:34.655Z,7.14
2019-04-14T23:11:24.651Z,7.06
2019-04-14T23:14:14.787Z,7.00
2019-04-14T23:17:04.992Z,7.28
2019-04-14T23:19:37.451Z,7.17
2019-04-14T23:22:27.779Z,7.21
2019-04-14T23:24:55.368Z,7.17
2019-04-14T23:27:23.033Z,6.99
2019-04-14T23:29:50.584Z,6.90
2019-04-14T23:32:18.245Z,6.82
2019-04-14T23:34:45.790Z,6.90
2019-04-14T23:37:13.456Z,6.87
2019-04-14T23:39:41.084Z,6.85
2019-04-14T23:42:08.724Z,6.92
2019-04-14T23:44:36.340Z,6.83
2019-04-14T23:47:04.416Z,6.90
2019-04-14T23:49:32.043Z,6.95
2019-04-14T23:51:59.653Z,6.89
2019-04-14T23:54:27.247Z,6.88
2019-04-14T23:57:04.707Z,6.89
2019-04-14T23:59:24.377Z,6.91
